Time;durP1;ratioP1;P1;durP2;ratioP2;P2;SDS_P1;SDS_P2;PMS_P1;PMS_P2;Temp;Humidity;BMP_temperature;BMP_pressure;BME280_temperature;BME280_humidity;BME280_pressure;Samples;Min_cycle;Max_cycle;Signal;HPM_P1;HPM_P2
2022/01/09 00:00:15;;;;;;;0.00;0.00;;;;;;;6.48;100.00;98270.13;4970714;28;20031;-83
2022/01/09 00:02:40;;;;;;;0.00;0.00;;;;;;;6.52;100.00;98273.06;4970346;28;20046;-81
2022/01/09 00:05:07;;;;;;;0.00;0.00;;;;;;;6.53;100.00;98261.34;4971131;28;20031;-82
2022/01/09 00:07:32;;;;;;;0.00;0.00;;;;;;;6.51;100.00;98256.31;4970890;28;20035;-80
2022/01/09 00:09:58;;;;;;;0.00;0.00;;;;;;;6.49;100.00;98252.31;4970580;28;20501;-82
2022/01/09 00:12:24;;;;;;;0.00;0.00;;;;;;;6.47;100.00;98257.91;4970748;28;20513;-79
2022/01/09 00:14:50;;;;;;;0.00;0.00;;;;;;;6.42;100.00;98260.59;4970908;28;20031;-80
2022/01/09 00:17:15;;;;;;;0.10;0.10;;;;;;;6.41;100.00;98262.44;4970945;28;20029;-80
2022/01/09 00:19:40;;;;;;;0.00;0.00;;;;;;;6.38;100.00;98252.34;4970860;28;20385;-79
2022/01/09 00:22:07;;;;;;;0.00;0.00;;;;;;;6.39;100.00;98267.22;4970822;28;20026;-78
2022/01/09 00:24:32;;;;;;;0.00;0.00;;;;;;;6.37;100.00;98264.03;4970694;28;20022;-80
2022/01/09 00:26:58;;;;;;;0.00;0.00;;;;;;;6.36;100.00;98265.09;4970955;28;20023;-78
2022/01/09 00:29:23;;;;;;;0.00;0.00;;;;;;;6.38;100.00;98278.91;4970488;28;20448;-80
2022/01/09 00:31:49;;;;;;;0.00;0.00;;;;;;;6.39;100.00;98277.81;4951507;29;20126;-78
2022/01/09 00:34:14;;;;;;;0.00;0.00;;;;;;;6.42;100.00;98284.50;4967242;28;20402;-78
2022/01/09 00:36:40;;;;;;;0.00;0.00;;;;;;;6.30;100.00;98252.06;4970602;28;20026;-78
2022/01/09 00:39:05;;;;;;;0.00;0.00;;;;;;;6.44;100.00;98274.38;4970451;28;20027;-81
2022/01/09 00:41:30;;;;;;;0.00;0.00;;;;;;;6.44;100.00;98266.41;4970424;28;20027;-77
2022/01/09 00:43:56;;;;;;;0.00;0.00;;;;;;;6.48;100.00;98266.66;4970176;28;20022;-77
2022/01/09 00:46:22;;;;;;;0.30;0.30;;;;;;;6.50;100.00;98261.91;4970302;28;20023;-79
2022/01/09 00:48:47;;;;;;;0.00;0.00;;;;;;;6.53;100.00;98264.00;4970272;28;20038;-77
2022/01/09 00:51:13;;;;;;;0.00;0.00;;;;;;;6.51;100.00;98250.22;4970494;28;20509;-79
2022/01/09 00:53:38;;;;;;;0.03;0.03;;;;;;;6.51;100.00;98256.31;4955407;28;20038;-76
2022/01/09 00:56:04;;;;;;;0.00;0.00;;;;;;;6.47;100.00;98244.63;4950957;29;20023;-79
2022/01/09 00:58:29;;;;;;;0.00;0.00;;;;;;;6.52;100.00;98254.47;4960278;28;20084;-78
2022/01/09 01:00:55;;;;;;;0.20;0.20;;;;;;;6.54;100.00;98260.28;4970012;28;20047;-80
2022/01/09 01:03:20;;;;;;;0.00;0.00;;;;;;;6.54;100.00;98252.31;4969361;28;20027;-76
2022/01/09 01:05:46;;;;;;;0.00;0.00;;;;;;;6.51;100.00;98244.91;4971339;28;20057;-77
2022/01/09 01:08:12;;;;;;;0.00;0.00;;;;;;;6.56;100.00;98255.50;4970248;28;20091;-76
2022/01/09 01:10:37;;;;;;;0.00;0.00;;;;;;;6.56;100.00;98253.63;4970496;28;20035;-76
2022/01/09 01:13:03;;;;;;;0.00;0.00;;;;;;;6.58;100.00;98248.06;4969942;28;20574;-77
2022/01/09 01:15:29;;;;;;;0.00;0.00;;;;;;;6.60;100.00;98251.25;4969942;28;20452;-78
2022/01/09 01:17:55;;;;;;;0.00;0.00;;;;;;;6.62;100.00;98253.66;4969789;28;20172;-84
2022/01/09 01:20:22;;;;;;;0.00;0.00;;;;;;;6.57;100.00;98247.25;4969569;28;20068;-83
2022/01/09 01:22:50;;;;;;;0.00;0.00;;;;;;;6.55;100.00;98228.16;4969726;28;20038;-81
2022/01/09 01:25:20;;;;;;;0.00;0.00;;;;;;;6.55;100.00;98230.81;4969838;28;20030;-82
2022/01/09 01:27:45;;;;;;;0.00;0.00;;;;;;;6.59;100.00;98236.34;4969390;28;20063;-84
2022/01/09 01:30:11;;;;;;;0.00;0.00;;;;;;;6.60;100.00;98229.19;4969813;28;20490;-83
2022/01/09 01:32:37;;;;;;;0.00;0.00;;;;;;;6.41;100.00;98193.38;4969529;28;20041;-83
2022/01/09 01:35:03;;;;;;;0.00;0.00;;;;;;;6.60;100.00;98226.53;4969369;28;20414;-83
2022/01/09 01:37:28;;;;;;;0.00;0.00;;;;;;;6.57;100.00;98227.88;4969410;28;20030;-83
2022/01/09 01:39:54;;;;;;;0.00;0.00;;;;;;;6.50;100.00;98209.56;4969432;28;20120;-84
2022/01/09 01:42:19;;;;;;;0.00;0.00;;;;;;;6.56;100.00;98208.47;4969441;28;20084;-84
2022/01/09 01:44:48;;;;;;;0.00;0.00;;;;;;;6.61;100.00;98217.50;4969366;28;20463;-84
2022/01/09 01:47:14;;;;;;;;;;;;;;;6.65;100.00;98213.25;4969625;28;20042;-82
2022/01/09 01:49:39;;;;;;;0.00;0.00;;;;;;;6.59;100.00;98203.69;4969034;28;19914;-76
2022/01/09 01:52:05;;;;;;;0.00;0.00;;;;;;;6.57;100.00;98201.31;4952883;28;20035;-78
2022/01/09 01:54:32;;;;;;;0.00;0.00;;;;;;;6.56;100.00;98189.09;4949978;28;20062;-77
2022/01/09 01:56:58;;;;;;;0.00;0.00;;;;;;;6.57;100.00;98185.38;4950072;28;20031;-75
2022/01/09 01:59:23;;;;;;;0.00;0.00;;;;;;;6.60;100.00;98192.00;4958899;28;20035;-76
2022/01/09 02:01:49;;;;;;;0.00;0.00;;;;;;;6.55;100.00;98175.03;4968857;28;20469;-76
2022/01/09 02:04:14;;;;;;;0.00;0.00;;;;;;;6.60;100.00;98176.84;4970234;28;20053;-75
2022/01/09 02:06:42;;;;;;;0.00;0.00;;;;;;;6.59;100.00;98171.81;4970146;28;20065;-76
2022/01/09 02:09:07;;;;;;;0.00;0.00;;;;;;;6.61;100.00;98169.69;4969000;28;22150;-82
2022/01/09 02:11:33;;;;;;;0.00;0.00;;;;;;;6.60;100.00;98173.41;4968572;28;20050;-83
2022/01/09 02:13:59;;;;;;;0.00;0.00;;;;;;;6.59;100.00;98167.28;4968970;28;20037;-84
2022/01/09 02:16:24;;;;;;;0.00;0.00;;;;;;;6.54;100.00;98160.16;4968833;28;20030;-80
2022/01/09 02:18:51;;;;;;;0.00;0.00;;;;;;;6.54;100.00;98168.13;4968418;28;20060;-80
2022/01/09 02:21:16;;;;;;;0.00;0.00;;;;;;;6.52;100.00;98159.63;4969078;28;20061;-79
2022/01/09 02:23:45;;;;;;;0.00;0.00;;;;;;;6.52;100.00;98161.50;4968772;28;20062;-77
2022/01/09 02:26:10;;;;;;;;;;;;;;;6.56;100.00;98173.16;4969368;28;20054;-76
2022/01/09 02:28:36;;;;;;;0.00;0.00;;;;;;;6.52;100.00;98154.31;4968689;28;20353;-77
2022/01/09 02:31:01;;;;;;;0.00;0.00;;;;;;;6.52;100.00;98150.88;4968642;28;20410;-77
2022/01/09 02:33:27;;;;;;;0.00;0.00;;;;;;;6.52;100.00;98156.97;4967908;28;20039;-76
2022/01/09 02:35:53;;;;;;;0.20;0.20;;;;;;;6.50;100.00;98151.13;4968847;28;20034;-78
2022/01/09 02:38:19;;;;;;;0.00;0.00;;;;;;;6.51;100.00;98151.94;4968339;28;20027;-77
2022/01/09 02:40:50;;;;;;;0.00;0.00;;;;;;;6.51;100.00;98159.91;4968401;28;20841;-75
2022/01/09 02:43:15;;;;;;;0.00;0.00;;;;;;;6.47;100.00;98162.28;4968663;28;20031;-76
2022/01/09 02:45:43;;;;;;;0.00;0.00;;;;;;;6.48;100.00;98155.09;4968467;28;20482;-77
2022/01/09 02:48:09;;;;;;;0.03;0.03;;;;;;;6.46;100.00;98154.56;4968604;28;20038;-78
2022/01/09 02:50:39;;;;;;;0.00;0.00;;;;;;;6.47;100.00;98151.66;4968020;28;20467;-79
2022/01/09 02:53:17;;;;;;;0.03;0.03;;;;;;;6.41;100.00;98144.78;4968363;28;20186;-80
2022/01/09 02:55:43;;;;;;;0.00;0.00;;;;;;;6.46;100.00;98157.22;4967998;28;20125;-78
2022/01/09 02:58:08;;;;;;;0.00;0.00;;;;;;;6.46;100.00;98158.03;4969582;28;20110;-77
2022/01/09 03:00:38;;;;;;;0.15;0.15;;;;;;;6.45;100.00;98153.78;4967484;28;20062;-78
2022/01/09 03:03:04;;;;;;;0.03;0.03;;;;;;;6.39;100.00;98139.72;4968398;28;20088;-75
2022/01/09 03:05:30;;;;;;;0.00;0.00;;;;;;;6.40;100.00;98137.88;4967823;28;20039;-75
2022/01/09 03:07:56;;;;;;;0.00;0.00;;;;;;;6.41;100.00;98140.25;4968450;28;20497;-76
2022/01/09 03:10:23;;;;;;;0.43;0.43;;;;;;;6.39;100.00;98130.97;4967735;28;20092;-74
2022/01/09 03:12:50;;;;;;;0.00;0.00;;;;;;;6.45;100.00;98142.38;4968220;28;20505;-75
2022/01/09 03:15:16;;;;;;;0.00;0.00;;;;;;;6.36;100.00;98128.84;4969241;28;20484;-75
2022/01/09 03:17:42;;;;;;;0.00;0.00;;;;;;;6.38;100.00;98124.88;4969104;28;20088;-75
2022/01/09 03:20:12;;;;;;;0.00;0.00;;;;;;;6.49;100.00;98140.78;4969140;28;20026;-74
2022/01/09 03:22:38;;;;;;;0.00;0.00;;;;;;;6.46;100.00;98131.47;4967802;28;20027;-79
2022/01/09 03:25:04;;;;;;;0.00;0.00;;;;;;;6.48;100.00;98123.25;4967839;28;20042;-76
2022/01/09 03:27:29;;;;;;;0.00;0.00;;;;;;;6.49;100.00;98127.50;4967671;28;20031;-76
2022/01/09 03:29:54;;;;;;;0.00;0.00;;;;;;;6.44;100.00;98120.31;4968073;28;20117;-74
2022/01/09 03:32:20;;;;;;;0.00;0.00;;;;;;;6.55;100.00;98135.19;4968081;28;20026;-74
2022/01/09 03:34:45;;;;;;;0.00;0.00;;;;;;;6.54;100.00;98122.97;4968563;28;20061;-75
2022/01/09 03:37:11;;;;;;;0.00;0.00;;;;;;;6.56;100.00;98125.34;4969329;28;20023;-74
2022/01/09 03:39:36;;;;;;;0.00;0.00;;;;;;;6.53;100.00;98124.03;4967736;28;20027;-73
2022/01/09 03:42:02;;;;;;;0.00;0.00;;;;;;;6.54;100.00;98120.31;4967641;28;20038;-73
2022/01/09 03:44:28;;;;;;;0.03;0.03;;;;;;;6.57;100.00;98125.06;4967385;28;20023;-74
2022/01/09 03:46:54;;;;;;;0.00;0.00;;;;;;;6.53;100.00;98120.56;4968962;28;20113;-73
2022/01/09 03:49:20;;;;;;;0.00;0.00;;;;;;;6.56;100.00;98123.47;4967455;28;20033;-73
2022/01/09 03:51:50;;;;;;;0.00;0.00;;;;;;;6.52;100.00;98117.13;4968203;28;20555;-73
2022/01/09 03:54:16;;;;;;;0.00;0.00;;;;;;;6.56;100.00;98120.03;4968734;28;20470;-74
2022/01/09 03:56:41;;;;;;;0.00;0.00;;;;;;;6.56;100.00;98122.69;4968827;28;20117;-76
2022/01/09 03:59:06;;;;;;;0.00;0.00;;;;;;;6.56;100.00;98125.34;4967358;28;20031;-75
2022/01/09 04:01:32;;;;;;;0.10;0.10;;;;;;;6.58;100.00;98125.88;4968003;28;20057;-76
2022/01/09 04:03:57;;;;;;;0.00;0.00;;;;;;;6.58;100.00;98115.25;4968395;28;20430;-75
2022/01/09 04:06:24;;;;;;;0.00;0.00;;;;;;;6.60;100.00;98126.38;4967112;28;20046;-75
2022/01/09 04:08:51;;;;;;;0.00;0.00;;;;;;;6.53;100.00;98107.28;4967309;28;20087;-75
2022/01/09 04:11:27;;;;;;;0.00;0.00;;;;;;;6.60;100.00;98110.44;4968857;28;20027;-75
2022/01/09 04:13:53;;;;;;;0.00;0.00;;;;;;;6.60;100.00;98102.47;4964442;28;20036;-76
2022/01/09 04:16:19;;;;;;;0.00;0.00;;;;;;;6.61;100.00;98092.66;4964703;28;20046;-76
2022/01/09 04:18:44;;;;;;;0.00;0.00;;;;;;;6.61;100.00;98098.75;4966026;28;20031;-76
2022/01/09 04:21:10;;;;;;;0.00;0.00;;;;;;;6.52;100.00;98092.44;4967316;28;20039;-77
2022/01/09 04:23:35;;;;;;;0.00;0.00;;;;;;;6.44;100.00;98101.75;4968529;28;20441;-76
2022/01/09 04:26:01;;;;;;;0.00;0.00;;;;;;;6.42;100.00;98090.59;4967268;28;20027;-79
2022/01/09 04:28:26;;;;;;;0.00;0.00;;;;;;;6.40;100.00;98106.78;4967215;28;20027;-80
2022/01/09 04:30:52;;;;;;;0.00;0.00;;;;;;;6.41;100.00;98100.41;4967529;28;20031;-76
2022/01/09 04:33:17;;;;;;;0.00;0.00;;;;;;;6.39;100.00;98109.72;4966845;28;20080;-76
2022/01/09 04:35:43;;;;;;;0.00;0.00;;;;;;;6.39;100.00;98105.19;4966559;28;20035;-75
2022/01/09 04:38:08;;;;;;;0.00;0.00;;;;;;;6.41;100.00;98103.06;4968254;28;20486;-76
2022/01/09 04:40:35;;;;;;;0.00;0.00;;;;;;;6.39;100.00;98091.91;4970397;28;20027;-77
2022/01/09 04:43:03;;;;;;;0.10;0.10;;;;;;;6.43;100.00;98099.34;4969892;28;20026;-75
2022/01/09 04:45:29;;;;;;;0.20;0.20;;;;;;;6.43;100.00;98102.78;4970017;28;20030;-74
2022/01/09 04:47:59;;;;;;;0.00;0.00;;;;;;;6.44;100.00;98103.59;4971464;28;20042;-74
2022/01/09 04:50:27;;;;;;;0.00;0.00;;;;;;;6.37;100.00;98079.97;4969931;28;20122;-77
2022/01/09 04:52:59;;;;;;;0.00;0.00;;;;;;;6.41;100.00;98087.13;4970103;28;20512;-81
2022/01/09 04:55:28;;;;;;;0.00;0.00;;;;;;;6.44;100.00;98093.75;4970367;28;20041;-79
2022/01/09 04:57:55;;;;;;;0.00;0.00;;;;;;;6.41;100.00;98087.13;4970247;28;20031;-79
2022/01/09 05:00:21;;;;;;;0.10;0.10;;;;;;;6.39;100.00;98086.59;4969993;28;20031;-78
2022/01/09 05:02:46;;;;;;;0.20;0.20;;;;;;;6.41;100.00;98084.47;4971321;28;20078;-80
2022/01/09 05:05:12;;;;;;;0.00;0.00;;;;;;;6.46;100.00;98093.50;4969761;28;20038;-78
2022/01/09 05:07:39;;;;;;;0.00;0.00;;;;;;;6.39;100.00;98081.28;4969614;28;20041;-76
2022/01/09 05:10:06;;;;;;;0.00;0.00;;;;;;;6.47;100.00;98093.25;4969933;28;20118;-77
2022/01/09 05:12:31;;;;;;;0.00;0.00;;;;;;;6.48;100.00;98094.84;4963542;28;20043;-77
2022/01/09 05:14:57;;;;;;;0.00;0.00;;;;;;;6.52;100.00;98097.75;4969897;28;20421;-76
2022/01/09 05:17:22;;;;;;;0.00;0.00;;;;;;;6.49;100.00;98093.75;4969259;28;20031;-76
2022/01/09 05:19:50;;;;;;;0.00;0.00;;;;;;;6.49;100.00;98077.03;4969579;28;20035;-77
2022/01/09 05:22:16;;;;;;;0.00;0.00;;;;;;;6.51;100.00;98085.53;4969905;28;20035;-77
2022/01/09 05:24:41;;;;;;;0.00;0.00;;;;;;;6.50;100.00;98089.25;4971317;28;20043;-76
2022/01/09 05:27:07;;;;;;;0.00;0.00;;;;;;;6.49;100.00;98092.97;4969804;28;20049;-75
2022/01/09 05:29:32;;;;;;;0.00;0.00;;;;;;;6.46;100.00;98085.53;4971143;28;20062;-75
2022/01/09 05:31:58;;;;;;;0.20;0.20;;;;;;;6.47;100.00;98089.78;4968784;28;20038;-76
2022/01/09 05:34:23;;;;;;;0.00;0.00;;;;;;;6.49;100.00;98087.66;4970807;28;20082;-77
2022/01/09 05:36:49;;;;;;;0.00;0.00;;;;;;;6.53;100.00;98100.13;4969248;28;20046;-79
2022/01/09 05:39:14;;;;;;;0.25;0.25;;;;;;;6.52;100.00;98111.03;4969157;28;20042;-81
2022/01/09 05:41:42;;;;;;;0.00;0.00;;;;;;;6.55;100.00;98097.19;4968366;28;20034;-76
2022/01/09 05:44:07;;;;;;;0.00;0.00;;;;;;;6.53;100.00;98097.47;4968845;28;20409;-75
2022/01/09 05:46:33;;;;;;;0.00;0.00;;;;;;;6.53;100.00;98092.16;4969310;28;20103;-75
2022/01/09 05:48:58;;;;;;;0.10;0.10;;;;;;;6.54;100.00;98095.59;4969001;28;20556;-75
2022/01/09 05:51:23;;;;;;;0.00;0.00;;;;;;;6.56;100.00;98088.16;4969449;28;20414;-75
2022/01/09 05:53:49;;;;;;;0.00;0.00;;;;;;;6.53;100.00;98083.38;4969208;28;20031;-76
2022/01/09 05:56:14;;;;;;;0.00;0.00;;;;;;;6.54;100.00;98087.63;4969073;28;20440;-75
2022/01/09 05:58:40;;;;;;;0.00;0.00;;;;;;;6.54;100.00;98093.75;4968782;28;20516;-74
2022/01/09 06:01:07;;;;;;;0.00;0.00;;;;;;;6.57;100.00;98092.41;4968600;28;20119;-76
2022/01/09 06:03:33;;;;;;;0.00;0.00;;;;;;;6.59;100.00;98092.91;4968817;28;20030;-74
2022/01/09 06:05:58;;;;;;;0.00;0.00;;;;;;;6.53;100.00;98084.19;4970069;28;20031;-77
2022/01/09 06:08:24;;;;;;;0.10;0.10;;;;;;;6.51;100.00;98091.63;4969925;28;20035;-76
2022/01/09 06:10:50;;;;;;;0.00;0.00;;;;;;;6.50;100.00;98084.72;4967943;28;20433;-75
2022/01/09 06:13:15;;;;;;;0.00;0.00;;;;;;;6.47;100.00;98069.34;4967386;28;20031;-75
2022/01/09 06:15:40;;;;;;;0.00;0.00;;;;;;;6.53;100.00;98108.09;4968186;28;20031;-75
2022/01/09 06:18:06;;;;;;;0.52;0.52;;;;;;;6.54;100.00;98100.91;4968360;28;20034;-74
2022/01/09 06:20:31;;;;;;;0.00;0.00;;;;;;;6.49;100.00;98096.41;4967807;28;20042;-72
2022/01/09 06:22:57;;;;;;;0.00;0.00;;;;;;;6.57;100.00;98109.13;4969403;28;20038;-74
2022/01/09 06:25:23;;;;;;;0.00;0.00;;;;;;;6.57;100.00;98111.78;4969736;28;20042;-74
2022/01/09 06:27:48;;;;;;;0.00;0.00;;;;;;;6.56;100.00;98115.50;4968085;28;20117;-73
2022/01/09 06:30:14;;;;;;;0.00;0.00;;;;;;;6.31;100.00;98081.88;4969061;28;20038;-73
2022/01/09 06:32:39;;;;;;;0.00;0.00;;;;;;;6.56;100.00;98117.38;4968287;28;20046;-74
2022/01/09 06:35:06;;;;;;;0.00;0.00;;;;;;;6.51;100.00;98106.78;4968997;28;20031;-75
2022/01/09 06:37:32;;;;;;;0.00;0.00;;;;;;;6.54;100.00;98109.69;4967934;28;20061;-74
2022/01/09 06:39:57;;;;;;;0.00;0.00;;;;;;;6.45;100.00;98094.59;4969071;28;20149;-76
2022/01/09 06:42:23;;;;;;;0.00;0.00;;;;;;;6.56;100.00;98109.41;4967653;28;20495;-77
2022/01/09 06:44:48;;;;;;;0.00;0.00;;;;;;;6.57;100.00;98111.00;4967590;28;20026;-77
2022/01/09 06:47:14;;;;;;;0.10;0.10;;;;;;;6.57;100.00;98097.72;4967969;28;20073;-77
2022/01/09 06:49:39;;;;;;;0.00;0.00;;;;;;;6.59;100.00;98108.84;4967817;28;20035;-76
2022/01/09 06:52:05;;;;;;;0.00;0.00;;;;;;;6.59;100.00;98097.44;4967905;28;20031;-75
2022/01/09 06:54:31;;;;;;;0.00;0.00;;;;;;;6.64;100.00;98106.19;4967384;28;20121;-77
2022/01/09 06:56:56;;;;;;;0.00;0.00;;;;;;;6.65;100.00;98099.81;4967358;28;20065;-77
2022/01/09 06:59:21;;;;;;;0.00;0.00;;;;;;;6.62;100.00;98091.59;4967551;28;20418;-76
2022/01/09 07:01:47;;;;;;;0.00;0.00;;;;;;;6.59;100.00;98086.81;4965525;28;20125;-76
2022/01/09 07:04:12;;;;;;;0.00;0.00;;;;;;;6.57;100.00;98093.19;4967161;28;20149;-76
2022/01/09 07:06:38;;;;;;;0.22;0.22;;;;;;;6.61;100.00;98087.34;4969070;28;20105;-80
2022/01/09 07:09:05;;;;;;;0.00;0.00;;;;;;;6.65;100.00;98099.00;4966511;28;20037;-77
2022/01/09 07:11:33;;;;;;;0.00;0.00;;;;;;;6.62;100.00;98087.06;4967109;28;20037;-77
2022/01/09 07:13:58;;;;;;;1.20;1.20;;;;;;;6.68;100.00;98095.81;4966784;28;20019;-78
2022/01/09 07:16:24;;;;;;;0.00;0.00;;;;;;;6.65;100.00;98085.72;4967722;28;20039;-77
2022/01/09 07:18:49;;;;;;;0.00;0.00;;;;;;;6.70;100.00;98083.03;4967905;28;20523;-76
2022/01/09 07:21:15;;;;;;;0.00;0.00;;;;;;;6.70;100.00;98083.03;4967207;28;20057;-77
2022/01/09 07:23:40;;;;;;;0.00;0.00;;;;;;;6.70;100.00;98083.84;4967856;28;20429;-77
2022/01/09 07:26:05;;;;;;;0.00;0.00;;;;;;;6.71;100.00;98081.97;4968150;28;20381;-79
2022/01/09 07:28:31;;;;;;;0.00;0.00;;;;;;;6.75;100.00;98076.88;4967829;28;20031;-78
2022/01/09 07:30:58;;;;;;;0.00;0.00;;;;;;;6.77;100.00;98080.84;4967964;28;20031;-78
2022/01/09 07:33:23;;;;;;;0.00;0.00;;;;;;;6.75;100.00;98069.72;4967961;28;20521;-78
2022/01/09 07:35:49;;;;;;;0.00;0.00;;;;;;;6.81;100.00;98073.94;4968715;28;20074;-78
2022/01/09 07:38:14;;;;;;;0.00;0.00;;;;;;;6.82;100.00;98069.41;4967860;28;20035;-77
2022/01/09 07:40:40;;;;;;;0.00;0.00;;;;;;;6.84;100.00;98075.25;4967668;28;20031;-78
2022/01/09 07:43:05;;;;;;;0.28;0.28;;;;;;;6.84;100.00;98075.25;4967862;28;20019;-78
2022/01/09 07:45:31;;;;;;;0.45;0.45;;;;;;;6.85;100.00;98064.34;4967561;28;20035;-77
2022/01/09 07:47:59;;;;;;;0.00;0.00;;;;;;;6.84;100.00;98060.09;4967877;28;20035;-78
2022/01/09 07:50:27;;;;;;;0.00;0.00;;;;;;;6.89;100.00;98062.72;4967038;28;20051;-78
2022/01/09 07:52:52;;;;;;;0.33;0.33;;;;;;;6.88;100.00;98055.81;4967581;28;20109;-78
2022/01/09 07:55:22;;;;;;;0.00;0.00;;;;;;;6.90;100.00;98034.28;4967814;28;20700;-77
2022/01/09 07:57:48;;;;;;;0.22;0.22;;;;;;;6.96;100.00;98029.72;4948221;28;20065;-80
2022/01/09 08:00:15;;;;;;;0.00;0.00;;;;;;;6.94;100.00;98030.00;4959169;28;20046;-82
2022/01/09 08:02:41;;;;;;;0.00;0.00;;;;;;;6.92;100.00;98020.72;4966085;28;20083;-77
2022/01/09 08:05:08;;;;;;;0.00;0.00;;;;;;;6.91;100.00;98019.13;4966814;28;20035;-85
2022/01/09 08:07:33;;;;;;;0.03;0.03;;;;;;;6.96;100.00;98022.53;4966635;28;20043;-83
2022/01/09 08:09:59;;;;;;;0.00;0.00;;;;;;;6.90;100.00;98018.34;4967503;28;20125;-80
2022/01/09 08:12:24;;;;;;;0.00;0.00;;;;;;;6.90;100.00;98021.00;4969257;28;20031;-79
2022/01/09 08:14:50;;;;;;;0.00;0.00;;;;;;;6.88;100.00;98015.97;4970925;28;20133;-81
2022/01/09 08:17:15;;;;;;;0.00;0.00;;;;;;;6.88;100.00;98020.47;4971049;28;20409;-84
2022/01/09 08:19:41;;;;;;;0.00;0.00;;;;;;;6.87;100.00;98017.03;5001169;28;20040;-83
2022/01/09 08:22:07;;;;;;;0.00;0.00;;;;;;;6.85;100.00;98013.84;4964397;28;20042;-80
2022/01/09 08:24:35;;;;;;;0.00;0.00;;;;;;;6.89;100.00;98006.91;4991010;28;20025;-82
2022/01/09 08:27:02;;;;;;;0.00;0.00;;;;;;;6.90;100.00;97999.72;5052963;28;20470;-81
2022/01/09 08:29:27;;;;;;;0.00;0.00;;;;;;;6.95;100.00;98005.00;5052423;28;20468;-83
2022/01/09 08:31:53;;;;;;;0.00;0.00;;;;;;;6.88;100.00;98004.53;5052789;28;20025;-79
2022/01/09 08:34:18;;;;;;;0.00;0.00;;;;;;;6.94;100.00;98006.06;4985998;28;20498;-81
2022/01/09 08:36:44;;;;;;;0.00;0.00;;;;;;;6.97;100.00;98005.53;4971286;28;20043;-82
2022/01/09 08:39:13;;;;;;;0.00;0.00;;;;;;;6.89;100.00;97984.84;4970933;28;20038;-81
2022/01/09 08:41:39;;;;;;;0.00;0.00;;;;;;;7.02;100.00;97997.50;4992847;28;20514;-81
2022/01/09 08:44:06;;;;;;;0.00;0.00;;;;;;;7.05;100.00;98006.78;5051759;28;20116;-78
2022/01/09 08:46:33;;;;;;;0.00;0.00;;;;;;;6.98;100.00;97991.16;4953848;28;20036;-72
2022/01/09 08:48:59;;;;;;;0.10;0.10;;;;;;;6.92;100.00;97981.66;4957464;28;20031;-77
2022/01/09 08:51:25;;;;;;;0.10;0.10;;;;;;;6.95;100.00;97989.06;4969848;28;20114;-76
2022/01/09 08:53:50;;;;;;;0.00;0.00;;;;;;;6.84;100.00;97977.69;4969957;28;20480;-74
2022/01/09 08:56:21;;;;;;;0.80;0.80;;;;;;;6.88;100.00;97994.69;4970371;28;20033;-84
2022/01/09 08:58:47;;;;;;;0.10;0.10;;;;;;;6.91;100.00;98006.63;4970069;28;20034;-74
2022/01/09 09:01:12;;;;;;;0.00;0.00;;;;;;;6.95;100.00;98012.19;4970383;28;20069;-76
2022/01/09 09:03:41;;;;;;;0.00;0.00;;;;;;;6.95;100.00;98009.53;4969671;28;20126;-75
2022/01/09 09:06:11;;;;;;;0.00;0.00;;;;;;;6.99;100.00;98013.22;4969734;28;20041;-75
2022/01/09 09:08:38;;;;;;;0.00;0.00;;;;;;;6.80;100.00;97981.19;4970835;28;20038;-76
2022/01/09 09:11:05;;;;;;;0.20;0.20;;;;;;;6.97;100.00;97996.75;4970060;28;20556;-75
2022/01/09 09:13:30;;;;;;;0.00;0.00;;;;;;;7.01;100.00;98001.22;4968710;28;20023;-75
2022/01/09 09:15:56;;;;;;;0.22;0.22;;;;;;;7.00;100.00;98001.53;4968979;28;20042;-74
2022/01/09 09:18:21;;;;;;;0.00;0.00;;;;;;;7.00;100.00;97996.19;4971291;28;20031;-72
2022/01/09 09:20:47;;;;;;;0.10;0.10;;;;;;;6.97;100.00;97988.75;4971225;28;20096;-82
2022/01/09 09:23:12;;;;;;;1.98;1.10;;;;;;;6.92;100.00;97986.16;4969079;28;20462;-82
2022/01/09 09:25:38;;;;;;;0.00;0.00;;;;;;;6.84;100.00;97983.03;4969725;28;20030;-84
2022/01/09 09:28:04;;;;;;;0.00;0.00;;;;;;;6.56;100.00;97944.69;4970273;28;20133;-84
2022/01/09 09:30:29;;;;;;;0.10;0.10;;;;;;;6.64;100.00;97961.91;4969539;28;20023;-82
2022/01/09 09:32:55;;;;;;;0.45;0.45;;;;;;;6.66;100.00;97965.09;4969877;28;20031;-85
2022/01/09 09:35:20;;;;;;;0.10;0.10;;;;;;;6.66;100.00;97970.41;4969837;28;20444;-76
2022/01/09 09:37:46;;;;;;;0.10;0.10;;;;;;;6.54;100.00;97962.78;4969530;28;20096;-74
2022/01/09 09:40:12;;;;;;;0.15;0.15;;;;;;;6.48;100.00;97961.22;4969792;28;20430;-75
2022/01/09 09:42:38;;;;;;;0.40;0.40;;;;;;;6.53;100.00;97967.31;4968316;28;20132;-79
2022/01/09 09:45:05;;;;;;;0.00;0.00;;;;;;;6.53;100.00;97977.13;4969626;28;20039;-78
2022/01/09 09:47:33;;;;;;;0.77;0.77;;;;;;;6.52;100.00;97964.94;4968522;28;20066;-77
2022/01/09 09:49:59;;;;;;;0.00;0.00;;;;;;;6.48;100.00;97956.72;4969529;28;20548;-75
2022/01/09 09:52:25;;;;;;;0.00;0.00;;;;;;;6.55;100.00;97967.00;4969441;28;20042;-75
2022/01/09 09:54:52;;;;;;;1.75;0.65;;;;;;;6.43;100.00;97943.44;4968541;28;20466;-75
2022/01/09 09:57:17;;;;;;;0.00;0.00;;;;;;;6.46;100.00;97947.41;4968242;28;20117;-80
2022/01/09 09:59:43;;;;;;;0.40;0.40;;;;;;;6.45;100.00;97940.53;4969054;28;20126;-78
2022/01/09 10:02:13;;;;;;;0.15;0.13;;;;;;;6.46;100.00;97929.63;4969411;28;20452;-74
2022/01/09 10:05:04;;;;;;;0.15;0.15;;;;;;;6.45;100.00;97924.59;4968045;28;20043;-75
2022/01/09 10:07:30;;;;;;;0.00;0.00;;;;;;;6.45;100.00;97922.72;4964675;28;20030;-75
2022/01/09 10:09:59;;;;;;;0.00;0.00;;;;;;;6.47;100.00;97928.56;4969255;28;20031;-75
2022/01/09 10:12:28;;;;;;;0.15;0.15;;;;;;;6.45;100.00;97928.03;4969183;28;20080;-76
2022/01/09 10:14:59;;;;;;;0.28;0.28;;;;;;;6.45;100.00;97927.25;4968640;28;20134;-76
2022/01/09 10:17:26;;;;;;;0.20;0.20;;;;;;;6.41;100.00;97905.78;4969729;28;20110;-74
2022/01/09 10:19:54;;;;;;;0.40;0.40;;;;;;;6.41;100.00;97911.84;4969038;28;20030;-76
2022/01/09 10:22:39;;;;;;;0.10;0.10;;;;;;;6.43;100.00;97919.53;4968550;28;20468;-76
2022/01/09 10:25:33;;;;;;;0.03;0.03;;;;;;;6.42;100.00;97915.31;4968987;28;20041;-75
2022/01/09 10:28:08;;;;;;;0.00;0.00;;;;;;;6.46;100.00;97911.03;4968979;28;20493;-76
2022/01/09 10:30:46;;;;;;;0.65;0.65;;;;;;;6.48;100.00;97902.78;4968763;28;20456;-77
2022/01/09 10:33:21;;;;;;;0.10;0.10;;;;;;;6.46;100.00;97902.25;4968255;28;20121;-75
2022/01/09 10:35:50;;;;;;;0.00;0.00;;;;;;;6.43;100.00;97898.28;4968588;28;20571;-74
2022/01/09 10:38:22;;;;;;;2.20;0.52;;;;;;;6.41;100.00;97893.28;4968756;28;20084;-74
2022/01/09 10:40:56;;;;;;;0.00;0.00;;;;;;;6.35;100.00;97878.44;4967225;28;20041;-74
2022/01/09 10:43:26;;;;;;;0.15;0.15;;;;;;;6.42;100.00;97883.47;4969321;28;20041;-76
2022/01/09 10:46:01;;;;;;;0.65;0.65;;;;;;;6.46;100.00;97891.63;4969423;28;20039;-77
2022/01/09 10:48:32;;;;;;;0.00;0.00;;;;;;;6.48;100.00;97890.31;4970050;28;20069;-74
2022/01/09 10:50:58;;;;;;;0.40;0.40;;;;;;;6.30;100.00;97873.19;4968603;28;20092;-74
2022/01/09 10:53:25;;;;;;;0.17;0.17;;;;;;;6.37;100.00;97871.00;4968318;28;20113;-75
2022/01/09 10:56:15;;;;;;;1.90;0.45;;;;;;;6.41;100.00;97885.31;4968171;28;20035;-80
2022/01/09 10:58:49;;;;;;;0.32;0.32;;;;;;;6.44;100.00;97878.66;4967852;28;20031;-74
2022/01/09 11:01:16;;;;;;;0.55;0.55;;;;;;;6.45;100.00;97879.44;4968002;28;20498;-73
2022/01/09 11:03:46;;;;;;;0.00;0.00;;;;;;;6.45;100.00;97866.16;4967856;28;20100;-73
2022/01/09 11:06:13;;;;;;;0.28;0.28;;;;;;;6.45;100.00;97868.81;4969474;28;20058;-73
2022/01/09 11:08:40;;;;;;;0.40;0.40;;;;;;;6.49;100.00;97872.50;4968841;28;20030;-75
2022/01/09 11:11:14;;;;;;;0.15;0.15;;;;;;;6.50;100.00;97868.78;4970910;28;20117;-74
2022/01/09 11:13:44;;;;;;;0.40;0.40;;;;;;;6.53;100.00;97866.38;4969364;28;20069;-73
2022/01/09 11:18:58;;;;;;;0.30;0.30;;;;;;;6.50;100.00;97844.88;4969420;28;20627;-75
2022/01/09 11:21:24;;;;;;;0.70;0.70;;;;;;;6.55;100.00;97852.78;4969092;28;20034;-74
2022/01/09 11:24:09;;;;;;;0.10;0.10;;;;;;;6.61;100.00;97849.03;4967783;28;20474;-75
2022/01/09 11:26:50;;;;;;;0.03;0.03;;;;;;;6.57;100.00;97837.38;4968646;28;20074;-73
2022/01/09 11:29:23;;;;;;;0.05;0.05;;;;;;;6.62;100.00;97842.66;4969139;28;20034;-72
2022/01/09 11:32:20;;;;;;;1.77;1.67;;;;;;;6.61;100.00;97829.66;4969069;28;20027;-73
2022/01/09 11:34:50;;;;;;;0.10;0.10;;;;;;;6.57;100.00;97830.19;4968792;28;20035;-72